sensor_id;sensor_type;location;lat;lon;timestamp;P1;durP1;ratioP1;P2;durP2;ratioP2
14907;SDS011;7545;52.092;7.006;2022-08-23T00:01:39;4.03;;;2.67;;
14907;SDS011;7545;52.092;7.006;2022-08-23T00:04:09;3.72;;;2.58;;
14907;SDS011;7545;52.092;7.006;2022-08-23T00:06:37;3.65;;;2.65;;
14907;SDS011;7545;52.092;7.006;2022-08-23T00:09:04;3.25;;;2.95;;
14907;SDS011;7545;52.092;7.006;2022-08-23T00:11:38;3.80;;;2.78;;
14907;SDS011;7545;52.092;7.006;2022-08-23T00:14:26;5.63;;;3.08;;
14907;SDS011;7545;52.092;7.006;2022-08-23T00:16:54;4.45;;;2.70;;
14907;SDS011;7545;52.092;7.006;2022-08-23T00:19:21;6.57;;;2.80;;
14907;SDS011;7545;52.092;7.006;2022-08-23T00:21:48;3.20;;;2.80;;
14907;SDS011;7545;52.092;7.006;2022-08-23T00:24:16;2.95;;;2.70;;
14907;SDS011;7545;52.092;7.006;2022-08-23T00:29:43;3.03;;;2.67;;
14907;SDS011;7545;52.092;7.006;2022-08-23T00:32:21;5.95;;;3.55;;
14907;SDS011;7545;52.092;7.006;2022-08-23T00:34:52;4.45;;;3.22;;
14907;SDS011;7545;52.092;7.006;2022-08-23T00:37:18;3.28;;;2.60;;
14907;SDS011;7545;52.092;7.006;2022-08-23T00:39:45;4.93;;;3.03;;
14907;SDS011;7545;52.092;7.006;2022-08-23T00:44:57;3.83;;;2.50;;
14907;SDS011;7545;52.092;7.006;2022-08-23T00:47:45;4.85;;;3.50;;
14907;SDS011;7545;52.092;7.006;2022-08-23T00:50:14;5.13;;;3.00;;
14907;SDS011;7545;52.092;7.006;2022-08-23T00:55:49;5.30;;;3.28;;
14907;SDS011;7545;52.092;7.006;2022-08-23T00:58:19;2.75;;;2.55;;
14907;SDS011;7545;52.092;7.006;2022-08-23T01:00:46;5.18;;;3.40;;
14907;SDS011;7545;52.092;7.006;2022-08-23T01:03:14;5.82;;;2.90;;
14907;SDS011;7545;52.092;7.006;2022-08-23T01:05:46;3.10;;;2.75;;
14907;SDS011;7545;52.092;7.006;2022-08-23T01:08:36;3.83;;;3.28;;
14907;SDS011;7545;52.092;7.006;2022-08-23T01:11:07;4.50;;;3.30;;
14907;SDS011;7545;52.092;7.006;2022-08-23T01:13:47;4.53;;;3.13;;
14907;SDS011;7545;52.092;7.006;2022-08-23T01:18:53;3.55;;;2.90;;
14907;SDS011;7545;52.092;7.006;2022-08-23T01:21:24;5.00;;;3.10;;
14907;SDS011;7545;52.092;7.006;2022-08-23T01:23:57;4.47;;;3.60;;
14907;SDS011;7545;52.092;7.006;2022-08-23T01:26:27;4.68;;;3.35;;
14907;SDS011;7545;52.092;7.006;2022-08-23T01:28:59;7.13;;;2.95;;
14907;SDS011;7545;52.092;7.006;2022-08-23T01:31:26;4.90;;;3.53;;
14907;SDS011;7545;52.092;7.006;2022-08-23T01:33:57;5.38;;;2.63;;
14907;SDS011;7545;52.092;7.006;2022-08-23T01:36:26;5.22;;;3.67;;
14907;SDS011;7545;52.092;7.006;2022-08-23T01:38:52;4.60;;;3.20;;
14907;SDS011;7545;52.092;7.006;2022-08-23T01:41:18;4.90;;;3.33;;
14907;SDS011;7545;52.092;7.006;2022-08-23T01:43:44;6.20;;;4.10;;
14907;SDS011;7545;52.092;7.006;2022-08-23T01:46:11;4.53;;;3.25;;
14907;SDS011;7545;52.092;7.006;2022-08-23T01:48:39;4.78;;;3.38;;
14907;SDS011;7545;52.092;7.006;2022-08-23T01:51:04;4.53;;;3.25;;
14907;SDS011;7545;52.092;7.006;2022-08-23T01:53:31;4.43;;;3.50;;
14907;SDS011;7545;52.092;7.006;2022-08-23T01:55:57;4.28;;;3.60;;
14907;SDS011;7545;52.092;7.006;2022-08-23T01:58:25;5.57;;;3.97;;
14907;SDS011;7545;52.092;7.006;2022-08-23T02:00:52;5.43;;;3.70;;
14907;SDS011;7545;52.092;7.006;2022-08-23T02:03:18;6.82;;;4.40;;
14907;SDS011;7545;52.092;7.006;2022-08-23T02:05:44;7.13;;;4.32;;
14907;SDS011;7545;52.092;7.006;2022-08-23T02:08:10;5.10;;;3.95;;
14907;SDS011;7545;52.092;7.006;2022-08-23T02:10:55;7.45;;;4.50;;
14907;SDS011;7545;52.092;7.006;2022-08-23T02:13:21;5.70;;;3.55;;
14907;SDS011;7545;52.092;7.006;2022-08-23T02:15:47;4.15;;;3.75;;
14907;SDS011;7545;52.092;7.006;2022-08-23T02:18:15;5.53;;;3.60;;
14907;SDS011;7545;52.092;7.006;2022-08-23T02:20:44;4.40;;;3.28;;
14907;SDS011;7545;52.092;7.006;2022-08-23T02:23:10;3.10;;;2.90;;
14907;SDS011;7545;52.092;7.006;2022-08-23T02:25:36;4.93;;;3.40;;
14907;SDS011;7545;52.092;7.006;2022-08-23T02:28:02;6.20;;;3.78;;
14907;SDS011;7545;52.092;7.006;2022-08-23T02:30:29;6.03;;;3.78;;
14907;SDS011;7545;52.092;7.006;2022-08-23T02:32:55;7.82;;;4.40;;
14907;SDS011;7545;52.092;7.006;2022-08-23T02:35:21;8.30;;;4.35;;
14907;SDS011;7545;52.092;7.006;2022-08-23T02:37:47;6.05;;;4.20;;
14907;SDS011;7545;52.092;7.006;2022-08-23T02:40:13;6.00;;;3.92;;
14907;SDS011;7545;52.092;7.006;2022-08-23T02:42:38;5.38;;;4.25;;
14907;SDS011;7545;52.092;7.006;2022-08-23T02:45:04;7.00;;;4.20;;
14907;SDS011;7545;52.092;7.006;2022-08-23T02:47:32;4.55;;;4.10;;
14907;SDS011;7545;52.092;7.006;2022-08-23T02:50:01;4.90;;;3.72;;
14907;SDS011;7545;52.092;7.006;2022-08-23T02:52:28;5.68;;;4.13;;
14907;SDS011;7545;52.092;7.006;2022-08-23T02:54:54;4.30;;;3.90;;
14907;SDS011;7545;52.092;7.006;2022-08-23T02:57:19;5.35;;;3.90;;
14907;SDS011;7545;52.092;7.006;2022-08-23T02:59:45;7.97;;;4.28;;
14907;SDS011;7545;52.092;7.006;2022-08-23T03:02:11;7.13;;;4.40;;
14907;SDS011;7545;52.092;7.006;2022-08-23T03:04:37;5.35;;;4.18;;
14907;SDS011;7545;52.092;7.006;2022-08-23T03:07:03;4.47;;;4.07;;
14907;SDS011;7545;52.092;7.006;2022-08-23T03:09:28;5.95;;;4.53;;
14907;SDS011;7545;52.092;7.006;2022-08-23T03:11:54;5.38;;;4.88;;
14907;SDS011;7545;52.092;7.006;2022-08-23T03:14:19;7.72;;;5.65;;
14907;SDS011;7545;52.092;7.006;2022-08-23T03:16:46;4.72;;;4.32;;
14907;SDS011;7545;52.092;7.006;2022-08-23T03:19:11;5.15;;;4.75;;
14907;SDS011;7545;52.092;7.006;2022-08-23T03:21:37;5.22;;;4.72;;
14907;SDS011;7545;52.092;7.006;2022-08-23T03:24:03;6.80;;;4.70;;
14907;SDS011;7545;52.092;7.006;2022-08-23T03:26:29;4.93;;;4.30;;
14907;SDS011;7545;52.092;7.006;2022-08-23T03:28:55;6.25;;;4.78;;
14907;SDS011;7545;52.092;7.006;2022-08-23T03:31:21;5.22;;;4.65;;
14907;SDS011;7545;52.092;7.006;2022-08-23T03:33:46;7.20;;;5.10;;
14907;SDS011;7545;52.092;7.006;2022-08-23T03:36:12;7.97;;;4.90;;
14907;SDS011;7545;52.092;7.006;2022-08-23T03:38:39;6.05;;;5.43;;
14907;SDS011;7545;52.092;7.006;2022-08-23T03:41:06;7.60;;;4.75;;
14907;SDS011;7545;52.092;7.006;2022-08-23T03:43:32;7.32;;;5.57;;
14907;SDS011;7545;52.092;7.006;2022-08-23T03:45:58;8.15;;;4.85;;
14907;SDS011;7545;52.092;7.006;2022-08-23T03:48:23;8.05;;;5.28;;
14907;SDS011;7545;52.092;7.006;2022-08-23T03:50:49;6.18;;;5.57;;
14907;SDS011;7545;52.092;7.006;2022-08-23T03:53:15;5.65;;;4.57;;
14907;SDS011;7545;52.092;7.006;2022-08-23T03:55:41;6.07;;;4.65;;
14907;SDS011;7545;52.092;7.006;2022-08-23T03:58:08;6.82;;;4.85;;
14907;SDS011;7545;52.092;7.006;2022-08-23T04:00:35;5.00;;;4.55;;
14907;SDS011;7545;52.092;7.006;2022-08-23T04:03:01;8.50;;;5.40;;
14907;SDS011;7545;52.092;7.006;2022-08-23T04:05:27;7.25;;;4.78;;
14907;SDS011;7545;52.092;7.006;2022-08-23T04:07:52;8.35;;;5.30;;
14907;SDS011;7545;52.092;7.006;2022-08-23T04:10:19;6.65;;;5.60;;
14907;SDS011;7545;52.092;7.006;2022-08-23T04:12:45;5.93;;;5.43;;
14907;SDS011;7545;52.092;7.006;2022-08-23T04:15:11;7.88;;;5.53;;
14907;SDS011;7545;52.092;7.006;2022-08-23T04:17:37;5.65;;;4.95;;
14907;SDS011;7545;52.092;7.006;2022-08-23T04:20:03;8.18;;;5.60;;
14907;SDS011;7545;52.092;7.006;2022-08-23T04:22:30;6.22;;;5.63;;
14907;SDS011;7545;52.092;7.006;2022-08-23T04:24:56;7.35;;;6.00;;
14907;SDS011;7545;52.092;7.006;2022-08-23T04:27:22;5.90;;;5.15;;
14907;SDS011;7545;52.092;7.006;2022-08-23T04:29:47;6.47;;;5.45;;
14907;SDS011;7545;52.092;7.006;2022-08-23T04:32:14;6.40;;;5.80;;
14907;SDS011;7545;52.092;7.006;2022-08-23T04:34:40;9.73;;;5.60;;
14907;SDS011;7545;52.092;7.006;2022-08-23T04:37:07;6.95;;;5.50;;
14907;SDS011;7545;52.092;7.006;2022-08-23T04:39:33;7.93;;;5.30;;
14907;SDS011;7545;52.092;7.006;2022-08-23T04:42:19;6.70;;;5.80;;
14907;SDS011;7545;52.092;7.006;2022-08-23T04:44:47;7.57;;;6.50;;
14907;SDS011;7545;52.092;7.006;2022-08-23T04:47:13;7.15;;;6.45;;
14907;SDS011;7545;52.092;7.006;2022-08-23T04:49:39;7.10;;;6.25;;
14907;SDS011;7545;52.092;7.006;2022-08-23T04:52:04;6.82;;;6.05;;
14907;SDS011;7545;52.092;7.006;2022-08-23T04:54:30;8.27;;;6.78;;
14907;SDS011;7545;52.092;7.006;2022-08-23T04:56:56;8.52;;;6.60;;
14907;SDS011;7545;52.092;7.006;2022-08-23T04:59:21;8.50;;;6.13;;
14907;SDS011;7545;52.092;7.006;2022-08-23T05:01:48;7.05;;;6.38;;
14907;SDS011;7545;52.092;7.006;2022-08-23T05:04:14;7.22;;;6.50;;
14907;SDS011;7545;52.092;7.006;2022-08-23T05:06:40;9.15;;;6.93;;
14907;SDS011;7545;52.092;7.006;2022-08-23T05:09:06;9.85;;;6.95;;
14907;SDS011;7545;52.092;7.006;2022-08-23T05:11:32;7.43;;;6.80;;
14907;SDS011;7545;52.092;7.006;2022-08-23T05:13:58;10.85;;;6.53;;
14907;SDS011;7545;52.092;7.006;2022-08-23T05:16:24;7.38;;;6.50;;
14907;SDS011;7545;52.092;7.006;2022-08-23T05:18:50;8.30;;;7.15;;
14907;SDS011;7545;52.092;7.006;2022-08-23T05:21:16;9.50;;;6.70;;
14907;SDS011;7545;52.092;7.006;2022-08-23T05:23:43;8.50;;;7.60;;
14907;SDS011;7545;52.092;7.006;2022-08-23T05:26:10;7.85;;;6.88;;
14907;SDS011;7545;52.092;7.006;2022-08-23T05:28:38;9.45;;;7.50;;
14907;SDS011;7545;52.092;7.006;2022-08-23T05:33:51;8.77;;;7.57;;
14907;SDS011;7545;52.092;7.006;2022-08-23T05:36:18;9.95;;;6.30;;
14907;SDS011;7545;52.092;7.006;2022-08-23T05:38:45;8.85;;;7.35;;
14907;SDS011;7545;52.092;7.006;2022-08-23T05:41:11;8.50;;;6.90;;
14907;SDS011;7545;52.092;7.006;2022-08-23T05:43:37;8.40;;;6.78;;
14907;SDS011;7545;52.092;7.006;2022-08-23T05:46:07;7.80;;;6.95;;
14907;SDS011;7545;52.092;7.006;2022-08-23T05:48:35;9.18;;;6.88;;
14907;SDS011;7545;52.092;7.006;2022-08-23T05:53:48;8.63;;;6.70;;
14907;SDS011;7545;52.092;7.006;2022-08-23T05:56:20;6.68;;;5.97;;
14907;SDS011;7545;52.092;7.006;2022-08-23T05:58:48;8.75;;;6.80;;
14907;SDS011;7545;52.092;7.006;2022-08-23T06:01:15;8.63;;;7.72;;
14907;SDS011;7545;52.092;7.006;2022-08-23T06:03:41;7.55;;;6.85;;
14907;SDS011;7545;52.092;7.006;2022-08-23T06:06:08;10.27;;;7.45;;
14907;SDS011;7545;52.092;7.006;2022-08-23T06:08:35;10.63;;;8.00;;
14907;SDS011;7545;52.092;7.006;2022-08-23T06:11:04;8.52;;;7.13;;
14907;SDS011;7545;52.092;7.006;2022-08-23T06:13:30;12.40;;;7.53;;
14907;SDS011;7545;52.092;7.006;2022-08-23T06:15:56;13.82;;;8.88;;
14907;SDS011;7545;52.092;7.006;2022-08-23T06:18:23;9.70;;;7.47;;
14907;SDS011;7545;52.092;7.006;2022-08-23T06:20:57;9.48;;;8.02;;
14907;SDS011;7545;52.092;7.006;2022-08-23T06:23:28;8.13;;;7.15;;
14907;SDS011;7545;52.092;7.006;2022-08-23T06:25:54;9.25;;;7.80;;
14907;SDS011;7545;52.092;7.006;2022-08-23T06:28:21;9.40;;;8.40;;
14907;SDS011;7545;52.092;7.006;2022-08-23T06:30:47;9.75;;;7.78;;
14907;SDS011;7545;52.092;7.006;2022-08-23T06:33:12;8.25;;;7.45;;
14907;SDS011;7545;52.092;7.006;2022-08-23T06:35:38;9.93;;;6.80;;
14907;SDS011;7545;52.092;7.006;2022-08-23T06:38:05;8.50;;;6.50;;
14907;SDS011;7545;52.092;7.006;2022-08-23T06:40:32;9.95;;;6.10;;
14907;SDS011;7545;52.092;7.006;2022-08-23T06:42:59;9.00;;;6.22;;
14907;SDS011;7545;52.092;7.006;2022-08-23T06:45:25;7.03;;;5.28;;
14907;SDS011;7545;52.092;7.006;2022-08-23T06:47:51;7.13;;;5.25;;
14907;SDS011;7545;52.092;7.006;2022-08-23T06:50:17;5.82;;;4.40;;
14907;SDS011;7545;52.092;7.006;2022-08-23T06:52:45;6.70;;;3.63;;
14907;SDS011;7545;52.092;7.006;2022-08-23T06:55:12;6.63;;;3.45;;
14907;SDS011;7545;52.092;7.006;2022-08-23T06:57:38;5.03;;;3.50;;
14907;SDS011;7545;52.092;7.006;2022-08-23T07:00:04;5.82;;;3.70;;
14907;SDS011;7545;52.092;7.006;2022-08-23T07:02:30;4.50;;;3.00;;
14907;SDS011;7545;52.092;7.006;2022-08-23T07:04:56;5.65;;;3.28;;
14907;SDS011;7545;52.092;7.006;2022-08-23T07:07:22;6.97;;;3.10;;
14907;SDS011;7545;52.092;7.006;2022-08-23T07:09:48;2.95;;;2.55;;
14907;SDS011;7545;52.092;7.006;2022-08-23T07:12:13;3.80;;;2.55;;
14907;SDS011;7545;52.092;7.006;2022-08-23T07:14:40;4.07;;;2.90;;
14907;SDS011;7545;52.092;7.006;2022-08-23T07:17:06;4.65;;;2.80;;
14907;SDS011;7545;52.092;7.006;2022-08-23T07:19:34;2.90;;;2.60;;
14907;SDS011;7545;52.092;7.006;2022-08-23T07:22:00;3.40;;;2.65;;
14907;SDS011;7545;52.092;7.006;2022-08-23T07:24:27;3.90;;;2.15;;
14907;SDS011;7545;52.092;7.006;2022-08-23T07:26:53;3.88;;;2.70;;
14907;SDS011;7545;52.092;7.006;2022-08-23T07:29:20;3.08;;;2.60;;
14907;SDS011;7545;52.092;7.006;2022-08-23T07:31:48;4.38;;;2.70;;
14907;SDS011;7545;52.092;7.006;2022-08-23T07:34:15;6.38;;;3.00;;
14907;SDS011;7545;52.092;7.006;2022-08-23T07:36:42;3.92;;;2.25;;
14907;SDS011;7545;52.092;7.006;2022-08-23T07:39:10;6.80;;;2.60;;
14907;SDS011;7545;52.092;7.006;2022-08-23T07:41:36;7.63;;;2.80;;
14907;SDS011;7545;52.092;7.006;2022-08-23T07:44:03;3.97;;;2.38;;
14907;SDS011;7545;52.092;7.006;2022-08-23T07:46:31;4.55;;;2.65;;
14907;SDS011;7545;52.092;7.006;2022-08-23T07:48:58;3.83;;;2.85;;
14907;SDS011;7545;52.092;7.006;2022-08-23T07:51:25;5.78;;;3.17;;
14907;SDS011;7545;52.092;7.006;2022-08-23T07:53:52;5.25;;;3.10;;
14907;SDS011;7545;52.092;7.006;2022-08-23T07:56:18;7.53;;;3.30;;
14907;SDS011;7545;52.092;7.006;2022-08-23T07:58:45;5.40;;;3.28;;
14907;SDS011;7545;52.092;7.006;2022-08-23T08:01:11;4.75;;;3.15;;
14907;SDS011;7545;52.092;7.006;2022-08-23T08:03:39;5.05;;;3.15;;
14907;SDS011;7545;52.092;7.006;2022-08-23T08:06:13;3.60;;;2.85;;
14907;SDS011;7545;52.092;7.006;2022-08-23T08:08:41;5.18;;;3.28;;
14907;SDS011;7545;52.092;7.006;2022-08-23T08:11:08;4.25;;;2.75;;
14907;SDS011;7545;52.092;7.006;2022-08-23T08:13:38;3.95;;;2.92;;
14907;SDS011;7545;52.092;7.006;2022-08-23T08:16:05;4.45;;;2.65;;
14907;SDS011;7545;52.092;7.006;2022-08-23T08:18:33;5.88;;;3.13;;
14907;SDS011;7545;52.092;7.006;2022-08-23T08:20:59;7.28;;;3.28;;
14907;SDS011;7545;52.092;7.006;2022-08-23T08:23:25;6.22;;;2.90;;
14907;SDS011;7545;52.092;7.006;2022-08-23T08:25:59;7.05;;;3.20;;
14907;SDS011;7545;52.092;7.006;2022-08-23T08:28:30;5.13;;;3.40;;
14907;SDS011;7545;52.092;7.006;2022-08-23T08:30:56;4.68;;;3.08;;
14907;SDS011;7545;52.092;7.006;2022-08-23T08:33:25;8.00;;;3.20;;
14907;SDS011;7545;52.092;7.006;2022-08-23T08:35:51;5.38;;;2.75;;
14907;SDS011;7545;52.092;7.006;2022-08-23T08:38:17;7.00;;;3.47;;
14907;SDS011;7545;52.092;7.006;2022-08-23T08:40:43;6.22;;;2.95;;
14907;SDS011;7545;52.092;7.006;2022-08-23T08:48:32;5.32;;;2.85;;
14907;SDS011;7545;52.092;7.006;2022-08-23T08:51:07;7.07;;;3.20;;
14907;SDS011;7545;52.092;7.006;2022-08-23T08:53:42;5.68;;;2.70;;
14907;SDS011;7545;52.092;7.006;2022-08-23T08:59:11;3.92;;;3.05;;
14907;SDS011;7545;52.092;7.006;2022-08-23T09:01:43;4.82;;;2.70;;
14907;SDS011;7545;52.092;7.006;2022-08-23T09:04:09;6.95;;;2.80;;
14907;SDS011;7545;52.092;7.006;2022-08-23T09:06:56;5.15;;;2.30;;
14907;SDS011;7545;52.092;7.006;2022-08-23T09:18:12;5.13;;;2.72;;
14907;SDS011;7545;52.092;7.006;2022-08-23T09:20:40;4.95;;;2.80;;
14907;SDS011;7545;52.092;7.006;2022-08-23T09:23:09;3.67;;;2.20;;
14907;SDS011;7545;52.092;7.006;2022-08-23T09:25:38;4.38;;;2.38;;
14907;SDS011;7545;52.092;7.006;2022-08-23T09:28:04;5.05;;;2.30;;
14907;SDS011;7545;52.092;7.006;2022-08-23T09:33:39;4.13;;;2.50;;
14907;SDS011;7545;52.092;7.006;2022-08-23T09:36:15;6.00;;;2.47;;
14907;SDS011;7545;52.092;7.006;2022-08-23T09:38:53;4.57;;;2.22;;
14907;SDS011;7545;52.092;7.006;2022-08-23T09:41:36;4.75;;;2.50;;
14907;SDS011;7545;52.092;7.006;2022-08-23T09:44:04;3.92;;;2.50;;
14907;SDS011;7545;52.092;7.006;2022-08-23T09:46:33;4.35;;;2.17;;
14907;SDS011;7545;52.092;7.006;2022-08-23T09:51:55;4.78;;;2.60;;
14907;SDS011;7545;52.092;7.006;2022-08-23T09:57:00;2.60;;;1.98;;
14907;SDS011;7545;52.092;7.006;2022-08-23T09:59:33;3.03;;;2.10;;
14907;SDS011;7545;52.092;7.006;2022-08-23T10:02:12;3.97;;;2.10;;
14907;SDS011;7545;52.092;7.006;2022-08-23T10:04:55;3.05;;;2.33;;
14907;SDS011;7545;52.092;7.006;2022-08-23T10:07:34;3.33;;;2.28;;
14907;SDS011;7545;52.092;7.006;2022-08-23T10:10:39;4.05;;;2.22;;
14907;SDS011;7545;52.092;7.006;2022-08-23T10:13:02;4.05;;;2.30;;
14907;SDS011;7545;52.092;7.006;2022-08-23T10:23:36;3.50;;;1.52;;
14907;SDS011;7545;52.092;7.006;2022-08-23T10:26:06;4.13;;;2.17;;
14907;SDS011;7545;52.092;7.006;2022-08-23T10:28:46;4.82;;;2.30;;
14907;SDS011;7545;52.092;7.006;2022-08-23T10:40:13;2.53;;;2.00;;
14907;SDS011;7545;52.092;7.006;2022-08-23T10:45:47;2.65;;;1.80;;
14907;SDS011;7545;52.092;7.006;2022-08-23T10:48:24;4.20;;;2.30;;
14907;SDS011;7545;52.092;7.006;2022-08-23T10:50:57;2.88;;;1.95;;
14907;SDS011;7545;52.092;7.006;2022-08-23T10:53:30;3.17;;;1.98;;
14907;SDS011;7545;52.092;7.006;2022-08-23T10:56:03;3.40;;;2.28;;
14907;SDS011;7545;52.092;7.006;2022-08-23T10:58:36;4.40;;;1.98;;
14907;SDS011;7545;52.092;7.006;2022-08-23T11:01:03;2.40;;;2.15;;
14907;SDS011;7545;52.092;7.006;2022-08-23T11:03:35;3.22;;;2.20;;
14907;SDS011;7545;52.092;7.006;2022-08-23T11:08:56;4.32;;;2.00;;
14907;SDS011;7545;52.092;7.006;2022-08-23T11:17:02;5.55;;;2.20;;
14907;SDS011;7545;52.092;7.006;2022-08-23T11:22:19;2.88;;;2.00;;
14907;SDS011;7545;52.092;7.006;2022-08-23T11:25:05;2.92;;;1.83;;
14907;SDS011;7545;52.092;7.006;2022-08-23T11:27:40;3.08;;;1.67;;
14907;SDS011;7545;52.092;7.006;2022-08-23T11:33:13;4.75;;;1.85;;
14907;SDS011;7545;52.092;7.006;2022-08-23T11:35:49;3.55;;;2.00;;
14907;SDS011;7545;52.092;7.006;2022-08-23T11:39:00;3.30;;;1.92;;
14907;SDS011;7545;52.092;7.006;2022-08-23T11:43:43;4.72;;;1.75;;
14907;SDS011;7545;52.092;7.006;2022-08-23T11:46:30;3.15;;;1.75;;
14907;SDS011;7545;52.092;7.006;2022-08-23T12:03:29;4.28;;;2.00;;
14907;SDS011;7545;52.092;7.006;2022-08-23T12:09:01;3.35;;;1.55;;
14907;SDS011;7545;52.092;7.006;2022-08-23T12:16:54;5.35;;;2.03;;
14907;SDS011;7545;52.092;7.006;2022-08-23T12:19:44;3.83;;;1.77;;
14907;SDS011;7545;52.092;7.006;2022-08-23T12:22:28;4.15;;;1.90;;
14907;SDS011;7545;52.092;7.006;2022-08-23T12:24:59;2.75;;;1.95;;
14907;SDS011;7545;52.092;7.006;2022-08-23T12:27:42;3.47;;;2.05;;
14907;SDS011;7545;52.092;7.006;2022-08-23T12:33:20;2.38;;;1.70;;
14907;SDS011;7545;52.092;7.006;2022-08-23T12:41:15;3.33;;;2.45;;
14907;SDS011;7545;52.092;7.006;2022-08-23T12:43:52;2.95;;;1.95;;
14907;SDS011;7545;52.092;7.006;2022-08-23T12:47:02;3.40;;;1.85;;
14907;SDS011;7545;52.092;7.006;2022-08-23T12:49:32;2.90;;;1.88;;
14907;SDS011;7545;52.092;7.006;2022-08-23T12:52:00;3.55;;;1.92;;
14907;SDS011;7545;52.092;7.006;2022-08-23T12:57:03;5.20;;;2.47;;
14907;SDS011;7545;52.092;7.006;2022-08-23T12:59:40;2.75;;;2.30;;
14907;SDS011;7545;52.092;7.006;2022-08-23T13:02:15;2.65;;;1.98;;
14907;SDS011;7545;52.092;7.006;2022-08-23T13:04:47;6.00;;;2.30;;
14907;SDS011;7545;52.092;7.006;2022-08-23T13:07:14;3.08;;;1.90;;
14907;SDS011;7545;52.092;7.006;2022-08-23T13:09:44;3.65;;;1.70;;
14907;SDS011;7545;52.092;7.006;2022-08-23T13:12:10;5.18;;;2.15;;
14907;SDS011;7545;52.092;7.006;2022-08-23T13:17:28;2.67;;;2.05;;
14907;SDS011;7545;52.092;7.006;2022-08-23T13:22:33;4.40;;;2.08;;
14907;SDS011;7545;52.092;7.006;2022-08-23T13:25:10;3.08;;;1.70;;
14907;SDS011;7545;52.092;7.006;2022-08-23T13:27:50;4.28;;;2.40;;
14907;SDS011;7545;52.092;7.006;2022-08-23T13:30:20;2.00;;;1.85;;
14907;SDS011;7545;52.092;7.006;2022-08-23T13:32:50;5.70;;;2.10;;
14907;SDS011;7545;52.092;7.006;2022-08-23T13:35:43;3.22;;;2.08;;
14907;SDS011;7545;52.092;7.006;2022-08-23T13:40:49;3.05;;;2.08;;
14907;SDS011;7545;52.092;7.006;2022-08-23T13:43:18;4.15;;;2.58;;
14907;SDS011;7545;52.092;7.006;2022-08-23T13:46:10;4.00;;;2.33;;
14907;SDS011;7545;52.092;7.006;2022-08-23T13:51:26;7.15;;;2.03;;
14907;SDS011;7545;52.092;7.006;2022-08-23T13:54:15;5.60;;;2.17;;
14907;SDS011;7545;52.092;7.006;2022-08-23T13:56:45;4.22;;;2.28;;
14907;SDS011;7545;52.092;7.006;2022-08-23T13:59:27;6.35;;;2.42;;
14907;SDS011;7545;52.092;7.006;2022-08-23T14:01:58;5.55;;;2.25;;
14907;SDS011;7545;52.092;7.006;2022-08-23T14:04:25;5.03;;;2.05;;
14907;SDS011;7545;52.092;7.006;2022-08-23T14:06:51;4.75;;;2.45;;
14907;SDS011;7545;52.092;7.006;2022-08-23T14:09:17;5.00;;;2.42;;
14907;SDS011;7545;52.092;7.006;2022-08-23T14:11:42;3.50;;;2.55;;
14907;SDS011;7545;52.092;7.006;2022-08-23T14:14:09;3.95;;;1.98;;
14907;SDS011;7545;52.092;7.006;2022-08-23T14:16:36;4.97;;;2.55;;
14907;SDS011;7545;52.092;7.006;2022-08-23T14:19:03;4.50;;;2.38;;
14907;SDS011;7545;52.092;7.006;2022-08-23T14:21:30;4.22;;;2.50;;
14907;SDS011;7545;52.092;7.006;2022-08-23T14:23:56;3.13;;;2.20;;
14907;SDS011;7545;52.092;7.006;2022-08-23T14:26:21;5.07;;;2.25;;
14907;SDS011;7545;52.092;7.006;2022-08-23T14:28:48;4.35;;;2.38;;
14907;SDS011;7545;52.092;7.006;2022-08-23T14:31:14;3.33;;;2.53;;
14907;SDS011;7545;52.092;7.006;2022-08-23T14:33:40;5.32;;;2.72;;
14907;SDS011;7545;52.092;7.006;2022-08-23T14:36:06;4.90;;;3.20;;
14907;SDS011;7545;52.092;7.006;2022-08-23T14:38:32;8.18;;;2.83;;
14907;SDS011;7545;52.092;7.006;2022-08-23T14:41:00;5.25;;;2.83;;
14907;SDS011;7545;52.092;7.006;2022-08-23T14:43:28;4.30;;;2.22;;
14907;SDS011;7545;52.092;7.006;2022-08-23T14:45:54;4.68;;;2.70;;
14907;SDS011;7545;52.092;7.006;2022-08-23T14:48:21;4.18;;;2.67;;
14907;SDS011;7545;52.092;7.006;2022-08-23T14:50:49;3.90;;;2.60;;
14907;SDS011;7545;52.092;7.006;2022-08-23T14:53:16;3.22;;;1.98;;
14907;SDS011;7545;52.092;7.006;2022-08-23T14:55:44;3.90;;;2.50;;
14907;SDS011;7545;52.092;7.006;2022-08-23T14:58:10;3.22;;;2.38;;
14907;SDS011;7545;52.092;7.006;2022-08-23T15:00:35;3.33;;;2.15;;
14907;SDS011;7545;52.092;7.006;2022-08-23T15:03:03;5.15;;;1.75;;
14907;SDS011;7545;52.092;7.006;2022-08-23T15:05:30;3.50;;;1.88;;
14907;SDS011;7545;52.092;7.006;2022-08-23T15:07:56;2.42;;;1.85;;
14907;SDS011;7545;52.092;7.006;2022-08-23T15:10:22;3.30;;;2.22;;
14907;SDS011;7545;52.092;7.006;2022-08-23T15:12:48;5.72;;;2.35;;
14907;SDS011;7545;52.092;7.006;2022-08-23T15:15:15;7.93;;;2.20;;
14907;SDS011;7545;52.092;7.006;2022-08-23T15:17:52;5.15;;;1.80;;
14907;SDS011;7545;52.092;7.006;2022-08-23T15:20:20;4.18;;;1.92;;
14907;SDS011;7545;52.092;7.006;2022-08-23T15:22:48;3.75;;;1.80;;
14907;SDS011;7545;52.092;7.006;2022-08-23T15:25:14;2.78;;;1.73;;
14907;SDS011;7545;52.092;7.006;2022-08-23T15:27:40;3.05;;;1.48;;
14907;SDS011;7545;52.092;7.006;2022-08-23T15:30:08;2.88;;;1.75;;
14907;SDS011;7545;52.092;7.006;2022-08-23T15:32:34;3.30;;;2.10;;
14907;SDS011;7545;52.092;7.006;2022-08-23T15:35:00;3.05;;;1.63;;
14907;SDS011;7545;52.092;7.006;2022-08-23T15:37:25;3.88;;;1.70;;
14907;SDS011;7545;52.092;7.006;2022-08-23T15:39:51;2.72;;;1.83;;
14907;SDS011;7545;52.092;7.006;2022-08-23T15:42:17;3.70;;;1.88;;
14907;SDS011;7545;52.092;7.006;2022-08-23T15:44:43;3.08;;;2.00;;
14907;SDS011;7545;52.092;7.006;2022-08-23T15:47:12;2.10;;;1.67;;
14907;SDS011;7545;52.092;7.006;2022-08-23T15:49:49;3.08;;;1.75;;
14907;SDS011;7545;52.092;7.006;2022-08-23T15:52:15;3.72;;;1.73;;
14907;SDS011;7545;52.092;7.006;2022-08-23T15:54:41;3.70;;;1.42;;
14907;SDS011;7545;52.092;7.006;2022-08-23T15:57:07;3.60;;;1.75;;
14907;SDS011;7545;52.092;7.006;2022-08-23T15:59:39;3.00;;;1.92;;
14907;SDS011;7545;52.092;7.006;2022-08-23T16:02:05;4.47;;;2.00;;
14907;SDS011;7545;52.092;7.006;2022-08-23T16:04:30;2.28;;;1.63;;
14907;SDS011;7545;52.092;7.006;2022-08-23T16:06:57;3.97;;;2.38;;
14907;SDS011;7545;52.092;7.006;2022-08-23T16:09:23;3.22;;;1.90;;
14907;SDS011;7545;52.092;7.006;2022-08-23T16:11:50;5.68;;;2.17;;
14907;SDS011;7545;52.092;7.006;2022-08-23T16:14:15;3.30;;;2.13;;
14907;SDS011;7545;52.092;7.006;2022-08-23T16:16:42;1.70;;;1.60;;
14907;SDS011;7545;52.092;7.006;2022-08-23T16:19:10;2.80;;;1.90;;
14907;SDS011;7545;52.092;7.006;2022-08-23T16:21:37;4.40;;;2.03;;
14907;SDS011;7545;52.092;7.006;2022-08-23T16:24:04;3.83;;;1.95;;
14907;SDS011;7545;52.092;7.006;2022-08-23T16:26:32;2.65;;;1.88;;
14907;SDS011;7545;52.092;7.006;2022-08-23T16:29:01;4.50;;;2.10;;
14907;SDS011;7545;52.092;7.006;2022-08-23T16:31:31;4.60;;;1.90;;
14907;SDS011;7545;52.092;7.006;2022-08-23T16:33:57;2.85;;;1.67;;
14907;SDS011;7545;52.092;7.006;2022-08-23T16:36:24;3.13;;;1.63;;
14907;SDS011;7545;52.092;7.006;2022-08-23T16:38:50;2.20;;;1.70;;
14907;SDS011;7545;52.092;7.006;2022-08-23T16:41:18;3.78;;;1.83;;
14907;SDS011;7545;52.092;7.006;2022-08-23T16:43:43;5.90;;;1.83;;
14907;SDS011;7545;52.092;7.006;2022-08-23T16:46:09;2.80;;;1.70;;
14907;SDS011;7545;52.092;7.006;2022-08-23T16:48:35;4.28;;;1.70;;
14907;SDS011;7545;52.092;7.006;2022-08-23T16:51:01;5.40;;;2.13;;
14907;SDS011;7545;52.092;7.006;2022-08-23T16:53:27;2.80;;;1.90;;
14907;SDS011;7545;52.092;7.006;2022-08-23T16:55:52;3.22;;;1.75;;
14907;SDS011;7545;52.092;7.006;2022-08-23T16:58:19;3.45;;;1.55;;
14907;SDS011;7545;52.092;7.006;2022-08-23T17:00:45;3.05;;;1.90;;
14907;SDS011;7545;52.092;7.006;2022-08-23T17:03:11;1.88;;;1.40;;
14907;SDS011;7545;52.092;7.006;2022-08-23T17:05:39;1.80;;;1.27;;
14907;SDS011;7545;52.092;7.006;2022-08-23T17:08:05;1.73;;;1.35;;
14907;SDS011;7545;52.092;7.006;2022-08-23T17:10:31;3.95;;;1.67;;
14907;SDS011;7545;52.092;7.006;2022-08-23T17:12:58;2.72;;;1.77;;
14907;SDS011;7545;52.092;7.006;2022-08-23T17:15:25;1.65;;;1.35;;